Terminal Aerodrome Forecast
Issued by NWS

Home | Current Version | Previous Version | Text Only | Print | Product List | Glossary On
Versions: 1 2 3 4 5 6 7 8 9 10 11 12 13 14
000
FTUS45 KABQ 301700
TAFAEG
TAF
KAEG 301728Z 3018/3118 01006KT 3SM -SN BR SCT005 OVC010
      TEMPO 3018/3021 1SM -SN BR OVC005
     FM302100 12009KT 3SM -SNRA BR SCT006 OVC015
     FM310300 13009KT 2SM -SN BR SCT005 BKN009
     FM311000 03006KT 5SM -SN BR OVC015=

USA.gov is the U.S. government's official web portal to all federal, state and local government web resources and services.